Time;durP1;ratioP1;P1;durP2;ratioP2;P2;SDS_P1;SDS_P2;PMS_P1;PMS_P2;Temp;Humidity;BMP_temperature;BMP_pressure;BME280_temperature;BME280_humidity;BME280_pressure;Samples;Min_cycle;Max_cycle;Signal;HPM_P1;HPM_P2
2022/04/08 01:04:35;;;;;;;;;;;5.50;99.90;;;;;;8374176;28;20330;-74
2022/04/08 01:08:38;;;;;;;;;;;5.40;99.90;;;;;;8389999;28;19921;-74
2022/04/08 01:12:39;;;;;;;;;;;5.40;99.90;;;;;;8371846;28;20371;-74
2022/04/08 01:16:41;;;;;;;;;;;5.30;99.90;;;;;;8386053;28;19931;-74
2022/04/08 01:20:44;;;;;;;;;;;5.20;99.90;;;;;;8390434;28;19921;-74
2022/04/08 01:24:49;;;;;;;;;;;5.10;99.90;;;;;;8381457;28;19921;-74
2022/04/08 01:28:51;;;;;;;;;;;5.10;99.90;;;;;;8383063;28;19920;-73
2022/04/08 01:32:52;;;;;;;;;;;5.10;99.90;;;;;;8384576;28;19943;-74
2022/04/08 01:36:54;;;;;;;;;;;5.00;99.90;;;;;;8378124;28;19920;-73
2022/04/08 01:40:56;;;;;;;;;;;5.00;99.90;;;;;;8382922;28;20275;-74
2022/04/08 01:44:58;;;;;;;;;;;4.90;99.90;;;;;;8393225;28;20307;-74
2022/04/08 01:49:00;;;;;;;;;;;4.90;99.90;;;;;;8389790;28;19944;-73
2022/04/08 01:53:01;;;;;;;;;;;4.90;99.90;;;;;;8401740;28;19924;-73
2022/04/08 01:57:03;;;;;;;;;;;4.90;99.90;;;;;;8387337;28;19928;-73
2022/04/08 02:01:05;;;;;;;;;;;4.80;99.90;;;;;;8384313;28;19920;-74
2022/04/08 02:05:07;;;;;;;;;;;4.80;99.90;;;;;;8387243;28;20097;-73
2022/04/08 02:09:09;;;;;;;;;;;4.70;99.90;;;;;;8386972;28;19924;-73
2022/04/08 02:13:11;;;;;;;;;;;4.70;99.90;;;;;;8376210;28;19951;-73
2022/04/08 02:17:12;;;;;;;;;;;4.70;99.90;;;;;;8380439;28;20280;-74
2022/04/08 02:21:19;;;;;;;;;;;4.60;99.90;;;;;;8376386;28;20155;-73
2022/04/08 02:25:21;;;;;;;;;;;4.70;99.90;;;;;;8379355;28;19921;-73
2022/04/08 02:29:22;;;;;;;;;;;4.70;99.90;;;;;;8378731;28;19965;-73
2022/04/08 02:33:24;;;;;;;;;;;4.70;99.90;;;;;;8375268;28;20085;-73
2022/04/08 02:37:26;;;;;;;;;;;4.80;99.90;;;;;;8375381;28;20347;-73
2022/04/08 02:41:27;;;;;;;;;;;4.80;99.90;;;;;;8371269;28;20747;-73
2022/04/08 02:45:29;;;;;;;;;;;4.70;99.90;;;;;;8381942;28;19925;-73
2022/04/08 02:49:31;;;;;;;;;;;4.60;99.90;;;;;;8385589;28;19921;-74
2022/04/08 02:53:32;;;;;;;;;;;4.40;99.90;;;;;;8369249;28;19928;-73
2022/04/08 02:57:37;;;;;;;;;;;4.40;99.90;;;;;;8385399;28;20272;-73
2022/04/08 03:01:38;;;;;;;;;;;4.30;99.90;;;;;;8420424;27;19932;-73
2022/04/08 03:05:40;;;;;;;;;;;4.30;99.90;;;;;;8376468;28;19929;-73
2022/04/08 03:09:42;;;;;;;;;;;4.20;99.90;;;;;;8377934;28;19931;-72
2022/04/08 03:13:43;;;;;;;;;;;4.10;99.90;;;;;;8377477;28;20376;-73
2022/04/08 03:17:45;;;;;;;;;;;4.00;99.90;;;;;;8378323;28;19935;-73
2022/04/08 03:21:47;;;;;;;;;;;3.90;99.90;;;;;;8384867;28;19924;-73
2022/04/08 03:25:49;;;;;;;;;;;3.90;99.90;;;;;;8400436;28;20394;-73
2022/04/08 03:29:51;;;;;;;;;;;3.80;99.90;;;;;;8381129;28;20378;-73
2022/04/08 03:33:53;;;;;;;;;;;3.70;99.90;;;;;;8375791;28;19920;-73
2022/04/08 03:37:54;;;;;;;;;;;3.70;99.90;;;;;;8386033;28;19928;-73
2022/04/08 03:41:57;;;;;;;;;;;3.60;99.90;;;;;;8415443;28;19920;-73
2022/04/08 03:45:58;;;;;;;;;;;3.60;99.90;;;;;;8387504;28;19951;-73
2022/04/08 03:50:00;;;;;;;;;;;3.50;99.90;;;;;;8395250;28;19920;-73
2022/04/08 03:54:02;;;;;;;;;;;3.40;99.90;;;;;;8408346;28;19927;-73
2022/04/08 03:58:04;;;;;;;;;;;3.30;99.90;;;;;;8391335;28;20004;-72
2022/04/08 04:02:07;;;;;;;;;;;3.20;99.90;;;;;;8383468;28;19920;-73
2022/04/08 04:06:09;;;;;;;;;;;3.10;99.90;;;;;;8394148;28;20358;-73
2022/04/08 04:10:14;;;;;;;;;;;3.10;99.90;;;;;;8388301;28;19932;-73
2022/04/08 04:14:16;;;;;;;;;;;3.00;99.90;;;;;;8395010;28;20302;-73
2022/04/08 04:18:18;;;;;;;;;;;3.00;99.90;;;;;;8398510;28;19924;-74
2022/04/08 04:22:19;;;;;;;;;;;3.00;99.90;;;;;;8383113;28;19925;-73
2022/04/08 04:26:21;;;;;;;;;;;3.00;99.90;;;;;;8392153;28;19925;-74
2022/04/08 04:30:27;;;;;;;;;;;3.10;99.90;;;;;;8392522;28;20600;-73
2022/04/08 04:34:28;;;;;;;;;;;3.10;99.90;;;;;;8389534;28;19920;-73
2022/04/08 04:38:30;;;;;;;;;;;3.10;99.90;;;;;;8393585;28;19927;-73
2022/04/08 04:42:32;;;;;;;;;;;3.10;99.90;;;;;;8378255;28;19921;-73
2022/04/08 04:46:33;;;;;;;;;;;3.10;99.90;;;;;;8395415;28;19932;-73
2022/04/08 04:50:35;;;;;;;;;;;3.10;99.90;;;;;;8373375;28;19928;-73
2022/04/08 04:54:37;;;;;;;;;;;3.00;99.90;;;;;;8386941;28;19927;-73
2022/04/08 04:58:39;;;;;;;;;;;3.00;99.90;;;;;;8386809;28;19924;-73
2022/04/08 05:02:41;;;;;;;;;;;2.90;99.90;;;;;;8377836;28;19924;-73
2022/04/08 05:06:42;;;;;;;;;;;2.90;99.90;;;;;;8390984;28;20402;-72
2022/04/08 05:10:44;;;;;;;;;;;2.90;99.90;;;;;;8392361;28;19928;-73
2022/04/08 05:14:45;;;;;;;;;;;2.90;99.90;;;;;;8381675;28;20387;-73
2022/04/08 05:18:47;;;;;;;;;;;2.90;99.90;;;;;;8382515;28;19927;-74
2022/04/08 05:22:49;;;;;;;;;;;2.90;99.90;;;;;;8384998;28;20359;-74
2022/04/08 05:26:50;;;;;;;;;;;2.90;99.90;;;;;;8379989;28;20315;-73
2022/04/08 05:30:52;;;;;;;;;;;3.00;99.90;;;;;;8384363;28;19920;-73
2022/04/08 05:34:54;;;;;;;;;;;3.00;99.90;;;;;;8378326;28;19924;-73
2022/04/08 05:39:00;;;;;;;;;;;3.10;99.90;;;;;;8393821;28;19931;-74
2022/04/08 05:43:03;;;;;;;;;;;3.20;99.90;;;;;;8378708;28;20210;-74
2022/04/08 05:47:05;;;;;;;;;;;3.20;99.90;;;;;;8391654;28;19924;-73
2022/04/08 05:51:07;;;;;;;;;;;3.30;99.90;;;;;;8395297;28;20027;-73
2022/04/08 05:55:09;;;;;;;;;;;3.40;99.90;;;;;;8378909;28;19924;-73
2022/04/08 05:59:10;;;;;;;;;;;3.50;99.90;;;;;;8429288;28;20376;-74
2022/04/08 06:03:12;;;;;;;;;;;3.60;99.90;;;;;;8383272;28;20353;-73
2022/04/08 06:07:14;;;;;;;;;;;3.80;99.90;;;;;;8398630;28;19924;-74
2022/04/08 06:11:15;;;;;;;;;;;3.90;99.90;;;;;;8384901;28;19924;-74
2022/04/08 06:15:17;;;;;;;;;;;4.10;99.90;;;;;;8418917;28;19939;-73
2022/04/08 06:19:19;;;;;;;;;;;4.20;99.90;;;;;;8397944;28;19925;-73
2022/04/08 06:23:21;;;;;;;;;;;4.40;99.90;;;;;;8423256;28;20287;-74
2022/04/08 06:27:22;;;;;;;;;;;4.50;99.90;;;;;;8392837;28;19928;-73
2022/04/08 06:31:28;;;;;;;;;;;4.60;99.90;;;;;;8382314;28;19932;-73
2022/04/08 06:35:30;;;;;;;;;;;4.60;99.90;;;;;;8385511;28;19928;-73
2022/04/08 06:39:32;;;;;;;;;;;4.80;99.90;;;;;;8381525;28;19947;-74
2022/04/08 06:43:34;;;;;;;;;;;4.80;99.90;;;;;;8422603;27;20280;-73
2022/04/08 06:47:45;;;;;;;;;;;4.90;99.90;;;;;;8414915;27;19925;-73
2022/04/08 06:51:47;;;;;;;;;;;5.00;99.90;;;;;;8392932;28;19931;-73
2022/04/08 06:55:48;;;;;;;;;;;5.20;99.90;;;;;;8390843;28;19928;-74
2022/04/08 06:59:50;;;;;;;;;;;5.30;99.90;;;;;;8387202;28;20241;-73
2022/04/08 07:03:52;;;;;;;;;;;5.50;99.90;;;;;;8398658;28;19936;-74
2022/04/08 07:07:54;;;;;;;;;;;5.60;99.90;;;;;;8401442;28;19951;-73
2022/04/08 07:11:56;;;;;;;;;;;5.70;99.90;;;;;;8420991;27;19931;-74
2022/04/08 07:15:57;;;;;;;;;;;5.70;99.90;;;;;;8387393;28;19931;-73
2022/04/08 07:19:59;;;;;;;;;;;5.80;99.90;;;;;;8389343;28;19925;-74
2022/04/08 07:24:01;;;;;;;;;;;5.90;99.90;;;;;;8392638;28;19924;-73
2022/04/08 07:28:03;;;;;;;;;;;6.00;99.90;;;;;;8398083;28;20272;-74
2022/04/08 07:32:05;;;;;;;;;;;6.10;99.90;;;;;;8406059;28;19924;-73
2022/04/08 07:36:07;;;;;;;;;;;6.20;99.90;;;;;;8386274;28;19964;-74
2022/04/08 07:40:09;;;;;;;;;;;6.30;99.90;;;;;;8387961;28;20027;-74
2022/04/08 07:44:11;;;;;;;;;;;6.40;99.90;;;;;;8404720;28;19929;-74
2022/04/08 07:48:12;;;;;;;;;;;6.50;99.90;;;;;;8398705;28;19939;-73
2022/04/08 07:52:14;;;;;;;;;;;6.60;99.90;;;;;;8402784;28;20020;-74
2022/04/08 07:56:16;;;;;;;;;;;6.70;99.90;;;;;;8391774;28;19924;-73
2022/04/08 08:00:22;;;;;;;;;;;6.80;99.90;;;;;;8391721;28;19932;-74
2022/04/08 08:04:23;;;;;;;;;;;6.80;99.90;;;;;;8398695;28;20376;-74
2022/04/08 08:08:25;;;;;;;;;;;6.90;99.90;;;;;;8401545;28;19977;-74
2022/04/08 08:12:27;;;;;;;;;;;7.00;99.90;;;;;;8390593;28;19928;-74
2022/04/08 08:16:29;;;;;;;;;;;7.00;99.90;;;;;;8406434;28;19924;-74
2022/04/08 08:20:30;;;;;;;;;;;7.10;99.90;;;;;;8397923;28;19928;-73
2022/04/08 08:24:32;;;;;;;;;;;7.20;99.90;;;;;;8390791;28;19951;-74
2022/04/08 08:28:34;;;;;;;;;;;7.30;99.90;;;;;;8380803;28;19925;-74
2022/04/08 08:32:39;;;;;;;;;;;7.40;99.90;;;;;;8400874;28;19944;-73
2022/04/08 08:36:40;;;;;;;;;;;7.60;99.90;;;;;;8380694;28;19940;-74
2022/04/08 08:40:43;;;;;;;;;;;7.70;99.90;;;;;;8395314;28;19931;-73
2022/04/08 08:44:45;;;;;;;;;;;7.80;99.90;;;;;;8374079;28;19932;-73
2022/04/08 08:48:50;;;;;;;;;;;7.80;99.90;;;;;;8376696;28;19932;-73
2022/04/08 08:52:52;;;;;;;;;;;7.90;99.90;;;;;;8377577;28;19925;-73
2022/04/08 08:56:54;;;;;;;;;;;8.00;99.90;;;;;;8375347;28;20299;-74
2022/04/08 09:00:56;;;;;;;;;;;8.10;99.90;;;;;;8409775;28;19924;-74
2022/04/08 09:04:57;;;;;;;;;;;8.30;99.90;;;;;;8417650;27;19986;-73
2022/04/08 09:08:59;;;;;;;;;;;8.50;99.90;;;;;;8397556;28;19928;-73
2022/04/08 09:13:02;;;;;;;;;;;8.70;99.90;;;;;;8384921;28;19932;-73
2022/04/08 09:17:04;;;;;;;;;;;8.70;99.90;;;;;;8389051;28;19962;-73
2022/04/08 09:21:05;;;;;;;;;;;8.70;99.90;;;;;;8385923;28;19924;-73
2022/04/08 09:25:11;;;;;;;;;;;8.80;99.90;;;;;;8373524;28;19925;-74
2022/04/08 09:29:13;;;;;;;;;;;8.80;99.90;;;;;;8381945;28;19931;-74
2022/04/08 09:33:20;;;;;;;;;;;8.80;99.90;;;;;;8387678;28;20294;-73
2022/04/08 09:37:22;;;;;;;;;;;8.80;99.90;;;;;;8393317;28;19931;-73
2022/04/08 09:41:44;;;;;;;;;;;8.90;99.90;;;;;;8387514;28;19932;-74
2022/04/08 09:45:46;;;;;;;;;;;8.90;99.90;;;;;;8374917;28;20391;-74
2022/04/08 09:49:48;;;;;;;;;;;9.00;99.90;;;;;;8383534;28;19925;-74
2022/04/08 09:53:57;;;;;;;;;;;8.90;99.90;;;;;;8407541;28;20283;-74
2022/04/08 09:58:05;;;;;;;;;;;8.90;99.90;;;;;;8380321;28;19924;-74
2022/04/08 10:02:07;;;;;;;;;;;9.00;99.90;;;;;;8378803;28;19928;-74
2022/04/08 10:06:09;;;;;;;;;;;9.00;99.90;;;;;;8395230;28;19924;-74
2022/04/08 10:10:17;;;;;;;;;;;9.10;99.90;;;;;;8380365;28;19932;-74
2022/04/08 10:14:34;;;;;;;;;;;9.10;99.90;;;;;;8371910;28;20299;-74
2022/04/08 10:18:40;;;;;;;;;;;9.10;99.90;;;;;;8379112;28;19924;-74
2022/04/08 10:22:42;;;;;;;;;;;9.10;99.90;;;;;;8382429;28;19932;-74
2022/04/08 10:27:08;;;;;;;;;;;9.20;99.90;;;;;;8394498;28;19931;-73
2022/04/08 10:31:14;;;;;;;;;;;9.40;99.90;;;;;;8418542;27;19924;-73
2022/04/08 10:35:15;;;;;;;;;;;9.50;99.90;;;;;;8383057;28;20343;-74
2022/04/08 10:39:18;;;;;;;;;;;9.60;99.90;;;;;;8418866;27;19924;-74
2022/04/08 10:43:20;;;;;;;;;;;9.70;99.90;;;;;;8393454;28;19935;-74
2022/04/08 10:47:23;;;;;;;;;;;9.80;99.90;;;;;;8391648;28;20413;-74
2022/04/08 10:51:29;;;;;;;;;;;9.90;99.90;;;;;;8379936;28;19935;-73
2022/04/08 10:55:31;;;;;;;;;;;9.90;99.90;;;;;;8379684;28;19924;-72
2022/04/08 10:59:33;;;;;;;;;;;9.90;99.90;;;;;;8381570;28;19924;-73
2022/04/08 11:03:37;;;;;;;;;;;9.90;99.90;;;;;;8373938;28;19925;-74
2022/04/08 11:07:39;;;;;;;;;;;9.90;99.90;;;;;;8381898;28;19951;-74
2022/04/08 11:11:42;;;;;;;;;;;9.90;99.90;;;;;;8389453;28;19939;-73
2022/04/08 11:15:44;;;;;;;;;;;9.90;99.90;;;;;;8382347;28;20077;-73
2022/04/08 11:19:48;;;;;;;;;;;9.90;99.90;;;;;;8386394;28;19933;-73
2022/04/08 11:24:19;;;;;;;;;;;9.90;99.90;;;;;;8373696;28;19931;-73
2022/04/08 11:28:24;;;;;;;;;;;9.80;99.90;;;;;;8369326;28;20328;-73
2022/04/08 11:32:30;;;;;;;;;;;9.70;99.90;;;;;;8382957;28;19925;-73
2022/04/08 11:36:33;;;;;;;;;;;9.80;99.90;;;;;;8380061;28;20008;-74
2022/04/08 11:40:34;;;;;;;;;;;9.80;99.90;;;;;;8420246;27;20380;-74
2022/04/08 11:44:37;;;;;;;;;;;10.00;99.90;;;;;;8376979;28;19925;-73
2022/04/08 11:48:38;;;;;;;;;;;10.20;99.90;;;;;;8388929;28;19955;-74
2022/04/08 11:52:50;;;;;;;;;;;10.30;99.90;;;;;;8383961;28;19924;-75
2022/04/08 11:56:53;;;;;;;;;;;10.40;99.90;;;;;;8387596;28;19928;-73
2022/04/08 12:00:55;;;;;;;;;;;10.40;99.90;;;;;;8384722;28;19987;-74
2022/04/08 12:04:57;;;;;;;;;;;10.40;99.90;;;;;;8384916;28;19932;-74
2022/04/08 12:09:09;;;;;;;;;;;10.40;99.90;;;;;;8384219;28;19924;-74
2022/04/08 12:13:23;;;;;;;;;;;10.40;99.90;;;;;;8375643;28;19936;-74
2022/04/08 12:17:35;;;;;;;;;;;10.40;99.90;;;;;;8385506;28;19935;-74
2022/04/08 12:21:40;;;;;;;;;;;10.60;99.90;;;;;;8387779;28;19931;-74
2022/04/08 12:25:42;;;;;;;;;;;10.60;99.90;;;;;;8382710;28;20341;-74
2022/04/08 12:29:45;;;;;;;;;;;10.60;99.90;;;;;;8402998;28;19931;-74
2022/04/08 12:33:47;;;;;;;;;;;10.70;99.90;;;;;;8386013;28;19932;-74
2022/04/08 12:37:49;;;;;;;;;;;10.70;99.90;;;;;;8386676;28;20334;-74
2022/04/08 12:41:50;;;;;;;;;;;10.70;99.90;;;;;;8389713;28;20392;-74
2022/04/08 12:45:53;;;;;;;;;;;10.80;99.90;;;;;;8382668;28;19924;-74
2022/04/08 12:49:54;;;;;;;;;;;10.80;99.90;;;;;;8389058;28;20016;-73
2022/04/08 12:53:56;;;;;;;;;;;10.90;99.90;;;;;;8378838;28;19924;-74
2022/04/08 12:57:58;;;;;;;;;;;11.00;99.90;;;;;;8391738;28;20268;-73
2022/04/08 13:02:04;;;;;;;;;;;11.10;99.90;;;;;;8373900;28;19924;-73
2022/04/08 13:06:05;;;;;;;;;;;11.10;99.90;;;;;;8359576;28;19932;-73
2022/04/08 13:10:08;;;;;;;;;;;11.00;99.90;;;;;;8396138;27;19931;-74
2022/04/08 13:14:09;;;;;;;;;;;10.90;99.90;;;;;;8359003;28;19968;-73
2022/04/08 13:18:11;;;;;;;;;;;10.90;99.90;;;;;;8362128;28;19958;-73
2022/04/08 13:22:14;;;;;;;;;;;11.00;99.90;;;;;;8363979;28;19943;-74
2022/04/08 13:26:16;;;;;;;;;;;11.20;99.90;;;;;;8361077;28;20309;-74
2022/04/08 13:30:17;;;;;;;;;;;11.30;99.90;;;;;;8392910;28;19958;-73
2022/04/08 13:34:20;;;;;;;;;;;11.30;99.90;;;;;;8356424;28;20020;-73
2022/04/08 13:38:36;;;;;;;;;;;11.30;99.90;;;;;;8358551;28;20263;-74
2022/04/08 13:42:38;;;;;;;;;;;11.30;99.90;;;;;;8359895;28;19932;-73
2022/04/08 13:46:40;;;;;;;;;;;11.30;99.90;;;;;;8358138;28;19936;-74
2022/04/08 13:50:45;;;;;;;;;;;11.30;99.90;;;;;;8366616;28;19990;-74
2022/04/08 13:54:49;;;;;;;;;;;11.30;99.90;;;;;;8370964;28;19924;-74
2022/04/08 13:58:50;;;;;;;;;;;11.20;99.90;;;;;;8365359;28;22523;-74
2022/04/08 14:02:52;;;;;;;;;;;11.10;99.90;;;;;;8367870;28;19933;-74
2022/04/08 14:06:54;;;;;;;;;;;11.00;99.90;;;;;;8367871;28;19924;-74
2022/04/08 14:10:55;;;;;;;;;;;10.90;99.90;;;;;;8360430;28;19932;-74
2022/04/08 14:14:57;;;;;;;;;;;10.80;99.90;;;;;;8361835;28;19925;-74
2022/04/08 14:19:15;;;;;;;;;;;10.80;99.90;;;;;;8366245;28;19950;-74
2022/04/08 14:23:17;;;;;;;;;;;10.80;99.90;;;;;;8399877;28;19925;-75
2022/04/08 14:27:18;;;;;;;;;;;10.80;99.90;;;;;;8402493;28;19947;-74
2022/04/08 14:31:20;;;;;;;;;;;10.80;99.90;;;;;;8361664;28;19943;-75
2022/04/08 14:35:22;;;;;;;;;;;10.70;99.90;;;;;;8361258;28;19925;-74
2022/04/08 14:39:23;;;;;;;;;;;10.70;99.90;;;;;;8362598;28;19932;-73
2022/04/08 14:43:25;;;;;;;;;;;10.70;99.90;;;;;;8353737;28;19928;-74
2022/04/08 14:47:28;;;;;;;;;;;10.70;99.90;;;;;;8361189;28;19937;-74
2022/04/08 14:51:30;;;;;;;;;;;10.90;99.90;;;;;;8368904;28;19931;-74
2022/04/08 14:55:32;;;;;;;;;;;11.00;99.90;;;;;;8368457;28;19947;-74
2022/04/08 14:59:34;;;;;;;;;;;11.00;99.90;;;;;;8369248;28;19928;-74
2022/04/08 15:03:35;;;;;;;;;;;11.00;99.90;;;;;;8363768;28;19928;-74
2022/04/08 15:07:37;;;;;;;;;;;10.90;99.90;;;;;;8372488;28;19929;-74
2022/04/08 15:11:39;;;;;;;;;;;10.80;99.90;;;;;;8363094;28;19932;-74
2022/04/08 15:15:40;;;;;;;;;;;10.80;99.90;;;;;;8371785;28;20292;-74
2022/04/08 15:19:42;;;;;;;;;;;10.70;99.90;;;;;;8359550;28;19928;-74
2022/04/08 15:23:43;;;;;;;;;;;10.70;99.90;;;;;;8362066;28;19936;-74
2022/04/08 15:27:45;;;;;;;;;;;10.60;99.90;;;;;;8363799;28;19936;-74
2022/04/08 15:31:47;;;;;;;;;;;10.60;99.90;;;;;;8374838;28;19932;-74
2022/04/08 15:35:51;;;;;;;;;;;10.70;99.90;;;;;;8359793;28;20396;-74
2022/04/08 15:39:53;;;;;;;;;;;10.70;99.90;;;;;;8361503;28;19933;-74
2022/04/08 15:43:55;;;;;;;;;;;10.70;99.90;;;;;;8375546;28;19939;-74
2022/04/08 15:47:56;;;;;;;;;;;10.70;99.90;;;;;;8362333;28;19936;-74
2022/04/08 15:51:58;;;;;;;;;;;10.80;99.90;;;;;;8366457;28;19924;-74
2022/04/08 15:56:00;;;;;;;;;;;10.70;99.90;;;;;;8364537;28;19933;-74
2022/04/08 16:00:02;;;;;;;;;;;10.60;99.90;;;;;;8371398;28;19932;-74
2022/04/08 16:04:04;;;;;;;;;;;10.50;99.90;;;;;;8363256;28;20019;-74
2022/04/08 16:08:06;;;;;;;;;;;10.50;99.90;;;;;;8371402;28;20587;-74
2022/04/08 16:12:08;;;;;;;;;;;10.60;99.90;;;;;;8364055;28;19947;-74
2022/04/08 16:16:09;;;;;;;;;;;10.60;99.90;;;;;;8369212;28;20365;-74
2022/04/08 16:20:26;;;;;;;;;;;10.50;99.90;;;;;;8365034;28;20400;-75
2022/04/08 16:24:28;;;;;;;;;;;10.40;99.90;;;;;;8359798;28;19948;-74
2022/04/08 16:28:30;;;;;;;;;;;10.40;99.90;;;;;;8363801;28;20261;-74
2022/04/08 16:32:33;;;;;;;;;;;10.40;99.90;;;;;;8361571;28;19932;-74
2022/04/08 16:36:41;;;;;;;;;;;10.40;99.90;;;;;;8359220;28;19929;-74
2022/04/08 16:40:42;;;;;;;;;;;10.30;99.90;;;;;;8362564;28;19928;-73
2022/04/08 16:44:46;;;;;;;;;;;10.20;99.90;;;;;;8370537;28;19925;-74
2022/04/08 16:48:48;;;;;;;;;;;10.00;99.90;;;;;;8369609;28;19936;-74
2022/04/08 16:52:50;;;;;;;;;;;9.90;99.90;;;;;;8364992;28;19943;-74
2022/04/08 16:56:51;;;;;;;;;;;9.80;99.90;;;;;;8362485;28;19969;-74
2022/04/08 17:00:57;;;;;;;;;;;9.80;99.90;;;;;;8365460;28;19960;-74
2022/04/08 17:04:59;;;;;;;;;;;9.80;99.90;;;;;;8366657;28;20038;-74
2022/04/08 17:09:01;;;;;;;;;;;9.70;99.90;;;;;;8390784;27;19931;-74
2022/04/08 17:13:02;;;;;;;;;;;9.60;99.90;;;;;;8361284;28;19972;-74
2022/04/08 17:17:04;;;;;;;;;;;9.60;99.90;;;;;;8385555;27;20415;-74
2022/04/08 17:21:06;;;;;;;;;;;9.60;99.90;;;;;;8364961;28;19924;-74
2022/04/08 17:25:08;;;;;;;;;;;9.70;99.90;;;;;;8363060;28;19925;-74
2022/04/08 17:29:10;;;;;;;;;;;9.70;99.90;;;;;;8357857;28;19940;-74
2022/04/08 17:33:11;;;;;;;;;;;9.60;99.90;;;;;;8358757;28;19932;-74
2022/04/08 17:37:13;;;;;;;;;;;9.50;99.90;;;;;;8363404;28;19928;-74
2022/04/08 17:41:15;;;;;;;;;;;9.40;99.90;;;;;;8362239;28;20430;-73
2022/04/08 17:45:19;;;;;;;;;;;9.20;99.90;;;;;;8389487;28;20400;-74
2022/04/08 17:49:21;;;;;;;;;;;9.00;99.90;;;;;;8355383;28;19928;-73
2022/04/08 17:53:22;;;;;;;;;;;8.90;99.90;;;;;;8359775;28;19928;-73
2022/04/08 17:57:24;;;;;;;;;;;8.70;99.90;;;;;;8360248;28;19928;-74
2022/04/08 18:01:27;;;;;;;;;;;8.60;99.90;;;;;;8362001;28;19928;-73
2022/04/08 18:05:28;;;;;;;;;;;8.50;99.90;;;;;;8359905;28;19925;-74
2022/04/08 18:09:46;;;;;;;;;;;8.40;99.90;;;;;;8369216;28;19931;-74
2022/04/08 18:13:48;;;;;;;;;;;8.20;99.90;;;;;;8391176;28;20257;-73
2022/04/08 18:17:49;;;;;;;;;;;8.20;99.90;;;;;;8359810;28;19924;-73
2022/04/08 18:21:51;;;;;;;;;;;8.20;99.90;;;;;;8358050;28;19951;-74
2022/04/08 18:25:53;;;;;;;;;;;8.20;99.90;;;;;;8361277;28;20553;-74
2022/04/08 18:29:55;;;;;;;;;;;8.10;99.90;;;;;;8366554;28;19933;-73
2022/04/08 18:34:12;;;;;;;;;;;8.00;99.90;;;;;;8368951;28;19963;-73
2022/04/08 18:38:14;;;;;;;;;;;7.90;99.90;;;;;;8373529;28;19932;-73
2022/04/08 18:42:16;;;;;;;;;;;7.80;99.90;;;;;;8393785;27;19991;-73
2022/04/08 18:46:17;;;;;;;;;;;7.70;99.90;;;;;;8396359;27;19929;-73
2022/04/08 18:50:19;;;;;;;;;;;7.60;99.90;;;;;;8368602;28;20411;-73
2022/04/08 18:54:21;;;;;;;;;;;7.50;99.90;;;;;;8366125;28;19932;-74
2022/04/08 18:58:22;;;;;;;;;;;7.40;99.90;;;;;;8366379;28;19933;-74
2022/04/08 19:02:29;;;;;;;;;;;7.40;99.90;;;;;;8392771;28;19948;-73
2022/04/08 19:06:31;;;;;;;;;;;7.30;99.90;;;;;;8370828;28;20362;-74
2022/04/08 19:10:33;;;;;;;;;;;7.30;99.90;;;;;;8368643;28;19932;-74
2022/04/08 19:14:35;;;;;;;;;;;7.20;99.90;;;;;;8375552;28;19925;-73
2022/04/08 19:18:36;;;;;;;;;;;7.20;99.90;;;;;;8380925;28;19925;-73
2022/04/08 19:22:39;;;;;;;;;;;7.10;99.90;;;;;;8390498;28;20357;-73
2022/04/08 19:26:42;;;;;;;;;;;7.10;99.90;;;;;;8408100;27;19925;-73
2022/04/08 19:30:43;;;;;;;;;;;7.10;99.90;;;;;;8377019;28;19959;-73
2022/04/08 19:34:45;;;;;;;;;;;7.00;99.90;;;;;;8384643;28;20386;-73
2022/04/08 19:38:47;;;;;;;;;;;6.90;99.90;;;;;;8375003;28;19925;-74
2022/04/08 19:42:48;;;;;;;;;;;6.80;99.90;;;;;;8372007;28;20292;-74
2022/04/08 19:46:50;;;;;;;;;;;6.80;99.90;;;;;;8376624;28;20581;-73
2022/04/08 19:50:52;;;;;;;;;;;6.80;99.90;;;;;;8374712;28;19964;-73
2022/04/08 19:54:53;;;;;;;;;;;6.70;99.90;;;;;;8375214;28;19925;-73
2022/04/08 19:58:55;;;;;;;;;;;6.70;99.90;;;;;;8372411;28;19925;-73
2022/04/08 20:02:57;;;;;;;;;;;6.60;99.90;;;;;;8371593;28;19933;-74
2022/04/08 20:06:58;;;;;;;;;;;6.60;99.90;;;;;;8372833;28;19928;-73
2022/04/08 20:11:00;;;;;;;;;;;6.50;99.90;;;;;;8376193;28;19935;-73
2022/04/08 20:15:02;;;;;;;;;;;6.50;99.90;;;;;;8375545;28;19928;-73
2022/04/08 20:19:04;;;;;;;;;;;6.50;99.90;;;;;;8380128;28;19928;-74
2022/04/08 20:23:05;;;;;;;;;;;6.50;99.90;;;;;;8376550;28;19924;-73
2022/04/08 20:27:07;;;;;;;;;;;6.40;99.90;;;;;;8404808;27;19925;-73
2022/04/08 20:31:09;;;;;;;;;;;6.40;99.90;;;;;;8407353;27;19924;-73
2022/04/08 20:35:10;;;;;;;;;;;6.40;99.90;;;;;;8373618;28;19928;-73
2022/04/08 20:39:12;;;;;;;;;;;6.30;99.90;;;;;;8372152;28;19935;-73
2022/04/08 20:43:14;;;;;;;;;;;6.20;99.90;;;;;;8372195;28;19940;-73
2022/04/08 20:47:15;;;;;;;;;;;6.20;99.90;;;;;;8373119;28;19932;-74
2022/04/08 20:51:17;;;;;;;;;;;6.20;99.90;;;;;;8371589;28;19933;-74
2022/04/08 20:55:19;;;;;;;;;;;6.20;99.90;;;;;;8368940;28;19939;-73
2022/04/08 20:59:23;;;;;;;;;;;6.20;99.90;;;;;;8369853;28;19924;-73
2022/04/08 21:03:26;;;;;;;;;;;6.10;99.90;;;;;;8384903;28;19943;-73
2022/04/08 21:07:27;;;;;;;;;;;6.10;99.90;;;;;;8397870;28;19932;-73
2022/04/08 21:11:29;;;;;;;;;;;6.10;99.90;;;;;;8386128;28;19924;-73
2022/04/08 21:15:31;;;;;;;;;;;6.00;99.90;;;;;;8395617;28;19924;-74
2022/04/08 21:19:32;;;;;;;;;;;6.00;99.90;;;;;;8385207;28;19935;-73
2022/04/08 21:23:34;;;;;;;;;;;5.90;99.90;;;;;;8389858;28;19935;-73
2022/04/08 21:27:36;;;;;;;;;;;5.90;99.90;;;;;;8394209;28;19932;-73
2022/04/08 21:31:38;;;;;;;;;;;5.90;99.90;;;;;;8396954;28;19924;-73
2022/04/08 21:35:40;;;;;;;;;;;5.80;99.90;;;;;;8395793;28;20027;-73
2022/04/08 21:39:42;;;;;;;;;;;5.80;99.90;;;;;;8387314;28;20288;-73
2022/04/08 21:43:44;;;;;;;;;;;5.70;99.90;;;;;;8388120;28;19980;-73
2022/04/08 21:47:46;;;;;;;;;;;5.60;99.90;;;;;;8390756;28;20257;-73
2022/04/08 21:51:47;;;;;;;;;;;5.60;99.90;;;;;;8404678;28;19924;-73
2022/04/08 21:55:51;;;;;;;;;;;5.50;99.90;;;;;;8386626;28;19925;-73
2022/04/08 21:59:56;;;;;;;;;;;5.50;99.90;;;;;;8389669;28;19931;-74
2022/04/08 22:03:58;;;;;;;;;;;5.50;99.90;;;;;;8389293;28;19932;-73
2022/04/08 22:07:59;;;;;;;;;;;5.50;99.90;;;;;;8388559;28;19925;-73
2022/04/08 22:12:02;;;;;;;;;;;5.40;99.90;;;;;;8390718;28;20394;-73
2022/04/08 22:16:04;;;;;;;;;;;5.40;99.90;;;;;;8393546;28;19959;-73
2022/04/08 22:20:08;;;;;;;;;;;5.30;99.90;;;;;;8432222;28;19925;-73
2022/04/08 22:24:10;;;;;;;;;;;5.30;99.90;;;;;;8386423;28;19928;-74
2022/04/08 22:28:13;;;;;;;;;;;5.20;99.90;;;;;;8386460;28;20361;-73
2022/04/08 22:32:14;;;;;;;;;;;5.20;99.90;;;;;;8398933;28;19939;-73
2022/04/08 22:36:16;;;;;;;;;;;5.20;99.90;;;;;;8402696;28;19944;-73
2022/04/08 22:40:18;;;;;;;;;;;5.30;99.90;;;;;;8393701;28;19925;-73
2022/04/08 22:44:19;;;;;;;;;;;5.40;99.90;;;;;;8395886;28;19932;-73
2022/04/08 22:48:21;;;;;;;;;;;5.40;99.90;;;;;;8396672;28;19924;-72
2022/04/08 22:52:23;;;;;;;;;;;5.30;99.90;;;;;;8400174;28;20466;-73
2022/04/08 22:56:24;;;;;;;;;;;5.30;99.90;;;;;;8383052;28;19935;-73
2022/04/08 23:00:26;;;;;;;;;;;5.20;99.90;;;;;;8413635;28;19924;-73
2022/04/08 23:04:28;;;;;;;;;;;5.10;99.90;;;;;;8400671;28;20280;-73
2022/04/08 23:08:29;;;;;;;;;;;5.00;99.90;;;;;;8385051;28;19925;-73
2022/04/08 23:12:31;;;;;;;;;;;4.90;99.90;;;;;;8396003;28;19925;-73
2022/04/08 23:16:33;;;;;;;;;;;4.90;99.90;;;;;;8404997;28;19933;-73
2022/04/08 23:20:34;;;;;;;;;;;4.90;99.90;;;;;;8394546;28;19928;-73
2022/04/08 23:24:36;;;;;;;;;;;4.80;99.90;;;;;;8391823;28;19928;-73
2022/04/08 23:28:37;;;;;;;;;;;4.80;99.90;;;;;;8387261;28;19936;-73
2022/04/08 23:32:39;;;;;;;;;;;4.80;99.90;;;;;;8408146;28;19924;-73
2022/04/08 23:36:41;;;;;;;;;;;4.80;99.90;;;;;;8393412;28;19931;-73
2022/04/08 23:40:47;;;;;;;;;;;4.70;99.90;;;;;;8394058;28;19932;-73
2022/04/08 23:44:49;;;;;;;;;;;4.80;99.90;;;;;;8420096;27;20373;-73
2022/04/08 23:48:50;;;;;;;;;;;4.80;99.90;;;;;;8399509;28;19931;-73
2022/04/08 23:52:53;;;;;;;;;;;4.90;99.90;;;;;;8408091;28;19951;-73
2022/04/08 23:56:55;;;;;;;;;;;4.90;99.90;;;;;;8381956;28;20011;-73
